Accueil
METAR-TAF:

METAR-TAF

Aéroports :

Edenton, Caroline du Nord, États-Unis

latitude: 36-01-40N, longitude: 076-34-02W, altitude: 6 m

Observation

Le bulletin a été fait il y a 5 minutes, à 19:35 UTC
Vent 15 kt de nord-ouest avec des rafales jusqu'à 22 kt
Température 15°C
Humidité 29%
Pression 1008 hPa
Visibilité: 16.1 km
Nuages épars à une hauteur de 8500 ft

METAR: KEDE 101935Z AUTO 31015G22KT 10SM SCT085 15/M03 A2977 RMK AO2 T01521029

Heure: 15:40 (19:40 UTC)


TAF: absent

Observations et prévisions météorologiques de plus de 4000 aéroports (messages METAR et TAF).

Les stations disponibles sont représentées par des disques jaunes et rouges sur la carte.

Passer la souris dessus pour voir le nom de la station.

Cliquer dessus pour voir les observations et prévisions météorologiques.

Pour changer de carte: cliquez sur les boutons verts avec une croix noire pour zoomer, sur le bouton vert avec un tiret pour effectuer un zoom arrière, ou sur les flèches vertes pour les cartes adjacentes.


METAR-TAF: